sensor_id;sensor_type;location;lat;lon;timestamp;temperature;humidity
46590;DHT22;32313;48.722;9.362;2024-03-25T00:01:04;4.00;99.90
46590;DHT22;32313;48.722;9.362;2024-03-25T00:03:30;4.00;99.90
46590;DHT22;32313;48.722;9.362;2024-03-25T00:05:55;4.00;99.90
46590;DHT22;32313;48.722;9.362;2024-03-25T00:08:22;4.00;99.90
46590;DHT22;32313;48.722;9.362;2024-03-25T00:10:48;4.10;99.90
46590;DHT22;32313;48.722;9.362;2024-03-25T00:13:14;4.10;99.90
46590;DHT22;32313;48.722;9.362;2024-03-25T00:15:40;4.00;99.90
46590;DHT22;32313;48.722;9.362;2024-03-25T00:18:06;4.00;99.90
46590;DHT22;32313;48.722;9.362;2024-03-25T00:20:32;4.00;99.90
46590;DHT22;32313;48.722;9.362;2024-03-25T00:22:58;4.00;99.90
46590;DHT22;32313;48.722;9.362;2024-03-25T00:25:23;4.00;99.90
46590;DHT22;32313;48.722;9.362;2024-03-25T00:27:52;3.90;99.90
46590;DHT22;32313;48.722;9.362;2024-03-25T00:30:19;3.90;99.90
46590;DHT22;32313;48.722;9.362;2024-03-25T00:32:45;3.90;99.90
46590;DHT22;32313;48.722;9.362;2024-03-25T00:35:10;4.00;99.90
46590;DHT22;32313;48.722;9.362;2024-03-25T00:37:36;4.00;99.90
46590;DHT22;32313;48.722;9.362;2024-03-25T00:40:02;3.90;99.90
46590;DHT22;32313;48.722;9.362;2024-03-25T00:42:29;3.90;99.90
46590;DHT22;32313;48.722;9.362;2024-03-25T00:44:55;3.90;99.90
46590;DHT22;32313;48.722;9.362;2024-03-25T00:47:20;3.90;99.90
46590;DHT22;32313;48.722;9.362;2024-03-25T00:49:47;3.90;99.90
46590;DHT22;32313;48.722;9.362;2024-03-25T00:52:13;3.90;99.90
46590;DHT22;32313;48.722;9.362;2024-03-25T00:54:38;3.90;99.90
46590;DHT22;32313;48.722;9.362;2024-03-25T00:57:04;3.90;99.90
46590;DHT22;32313;48.722;9.362;2024-03-25T00:59:30;3.80;99.90
46590;DHT22;32313;48.722;9.362;2024-03-25T01:01:55;3.80;99.90
46590;DHT22;32313;48.722;9.362;2024-03-25T01:04:21;3.80;99.90
46590;DHT22;32313;48.722;9.362;2024-03-25T01:06:47;3.80;99.90
46590;DHT22;32313;48.722;9.362;2024-03-25T01:09:14;3.80;99.90
46590;DHT22;32313;48.722;9.362;2024-03-25T01:11:39;3.80;99.90
46590;DHT22;32313;48.722;9.362;2024-03-25T01:14:05;3.80;99.90
46590;DHT22;32313;48.722;9.362;2024-03-25T01:16:31;3.80;99.90
46590;DHT22;32313;48.722;9.362;2024-03-25T01:18:57;3.80;99.90
46590;DHT22;32313;48.722;9.362;2024-03-25T01:21:25;3.80;99.90
46590;DHT22;32313;48.722;9.362;2024-03-25T01:23:50;3.80;99.90
46590;DHT22;32313;48.722;9.362;2024-03-25T01:26:16;3.80;99.90
46590;DHT22;32313;48.722;9.362;2024-03-25T01:28:42;3.80;99.90
46590;DHT22;32313;48.722;9.362;2024-03-25T01:31:08;3.80;99.90
46590;DHT22;32313;48.722;9.362;2024-03-25T01:33:34;3.70;99.90
46590;DHT22;32313;48.722;9.362;2024-03-25T01:36:00;3.60;99.90
46590;DHT22;32313;48.722;9.362;2024-03-25T01:38:26;3.60;99.90
46590;DHT22;32313;48.722;9.362;2024-03-25T01:40:53;3.60;99.90
46590;DHT22;32313;48.722;9.362;2024-03-25T01:43:18;3.50;99.90
46590;DHT22;32313;48.722;9.362;2024-03-25T01:45:44;3.50;99.90
46590;DHT22;32313;48.722;9.362;2024-03-25T01:48:10;3.50;99.90
46590;DHT22;32313;48.722;9.362;2024-03-25T01:50:42;3.40;99.90
46590;DHT22;32313;48.722;9.362;2024-03-25T01:53:09;3.40;99.90
46590;DHT22;32313;48.722;9.362;2024-03-25T01:55:35;3.40;99.90
46590;DHT22;32313;48.722;9.362;2024-03-25T01:58:02;3.30;99.90
46590;DHT22;32313;48.722;9.362;2024-03-25T02:00:29;3.30;99.90
46590;DHT22;32313;48.722;9.362;2024-03-25T02:02:55;3.30;99.90
46590;DHT22;32313;48.722;9.362;2024-03-25T02:05:22;3.30;99.90
46590;DHT22;32313;48.722;9.362;2024-03-25T02:07:48;3.40;99.90
46590;DHT22;32313;48.722;9.362;2024-03-25T02:10:15;3.40;99.90
46590;DHT22;32313;48.722;9.362;2024-03-25T02:12:45;3.40;99.90
46590;DHT22;32313;48.722;9.362;2024-03-25T02:15:12;3.40;99.90
46590;DHT22;32313;48.722;9.362;2024-03-25T02:17:41;3.50;99.90
46590;DHT22;32313;48.722;9.362;2024-03-25T02:20:07;3.60;99.90
46590;DHT22;32313;48.722;9.362;2024-03-25T02:22:34;3.60;99.90
46590;DHT22;32313;48.722;9.362;2024-03-25T02:25:07;3.60;99.90
46590;DHT22;32313;48.722;9.362;2024-03-25T02:27:37;3.50;99.90
46590;DHT22;32313;48.722;9.362;2024-03-25T02:30:09;3.50;99.90
46590;DHT22;32313;48.722;9.362;2024-03-25T02:32:38;3.40;99.90
46590;DHT22;32313;48.722;9.362;2024-03-25T02:35:06;3.40;99.90
46590;DHT22;32313;48.722;9.362;2024-03-25T02:37:33;3.40;99.90
46590;DHT22;32313;48.722;9.362;2024-03-25T02:40:00;3.40;99.90
46590;DHT22;32313;48.722;9.362;2024-03-25T02:42:27;3.30;99.90
46590;DHT22;32313;48.722;9.362;2024-03-25T02:44:54;3.30;99.90
46590;DHT22;32313;48.722;9.362;2024-03-25T02:47:20;3.30;99.90
46590;DHT22;32313;48.722;9.362;2024-03-25T02:49:46;3.40;99.90
46590;DHT22;32313;48.722;9.362;2024-03-25T02:52:12;3.40;99.90
46590;DHT22;32313;48.722;9.362;2024-03-25T02:54:38;3.60;99.90
46590;DHT22;32313;48.722;9.362;2024-03-25T02:57:04;3.60;99.90
46590;DHT22;32313;48.722;9.362;2024-03-25T02:59:30;3.60;99.90
46590;DHT22;32313;48.722;9.362;2024-03-25T03:01:55;3.60;99.90
46590;DHT22;32313;48.722;9.362;2024-03-25T03:04:21;3.60;99.90
46590;DHT22;32313;48.722;9.362;2024-03-25T03:06:47;3.60;99.90
46590;DHT22;32313;48.722;9.362;2024-03-25T03:09:12;3.60;99.90
46590;DHT22;32313;48.722;9.362;2024-03-25T03:11:38;3.50;99.90
46590;DHT22;32313;48.722;9.362;2024-03-25T03:14:04;3.50;99.90
46590;DHT22;32313;48.722;9.362;2024-03-25T03:16:30;3.40;99.90
46590;DHT22;32313;48.722;9.362;2024-03-25T03:18:55;3.40;99.90
46590;DHT22;32313;48.722;9.362;2024-03-25T03:21:21;3.40;99.90
46590;DHT22;32313;48.722;9.362;2024-03-25T03:23:48;3.30;99.90
46590;DHT22;32313;48.722;9.362;2024-03-25T03:26:14;3.30;99.90
46590;DHT22;32313;48.722;9.362;2024-03-25T03:28:40;3.30;99.90
46590;DHT22;32313;48.722;9.362;2024-03-25T03:31:06;3.30;99.90
46590;DHT22;32313;48.722;9.362;2024-03-25T03:33:32;3.30;99.90
46590;DHT22;32313;48.722;9.362;2024-03-25T03:35:58;3.40;99.90
46590;DHT22;32313;48.722;9.362;2024-03-25T03:38:24;3.50;99.90
46590;DHT22;32313;48.722;9.362;2024-03-25T03:41:02;3.50;99.90
46590;DHT22;32313;48.722;9.362;2024-03-25T03:43:29;3.60;99.90
46590;DHT22;32313;48.722;9.362;2024-03-25T03:45:54;3.50;99.90
46590;DHT22;32313;48.722;9.362;2024-03-25T03:48:20;3.40;99.90
46590;DHT22;32313;48.722;9.362;2024-03-25T03:50:46;3.40;99.90
46590;DHT22;32313;48.722;9.362;2024-03-25T03:53:12;3.30;99.90
46590;DHT22;32313;48.722;9.362;2024-03-25T03:55:38;3.20;99.90
46590;DHT22;32313;48.722;9.362;2024-03-25T03:58:03;3.20;99.90
46590;DHT22;32313;48.722;9.362;2024-03-25T04:00:29;3.10;99.90
46590;DHT22;32313;48.722;9.362;2024-03-25T04:02:58;3.10;99.90
46590;DHT22;32313;48.722;9.362;2024-03-25T04:05:24;3.00;99.90
46590;DHT22;32313;48.722;9.362;2024-03-25T04:07:53;3.00;99.90
46590;DHT22;32313;48.722;9.362;2024-03-25T04:10:18;2.90;99.90
46590;DHT22;32313;48.722;9.362;2024-03-25T04:12:44;2.90;99.90
46590;DHT22;32313;48.722;9.362;2024-03-25T04:15:10;2.90;99.90
46590;DHT22;32313;48.722;9.362;2024-03-25T04:17:43;2.90;99.90
46590;DHT22;32313;48.722;9.362;2024-03-25T04:20:11;3.00;99.90
46590;DHT22;32313;48.722;9.362;2024-03-25T04:22:40;3.00;99.90
46590;DHT22;32313;48.722;9.362;2024-03-25T04:25:06;3.00;99.90
46590;DHT22;32313;48.722;9.362;2024-03-25T04:27:32;3.10;99.90
46590;DHT22;32313;48.722;9.362;2024-03-25T04:29:58;3.10;99.90
46590;DHT22;32313;48.722;9.362;2024-03-25T04:32:23;3.00;99.90
46590;DHT22;32313;48.722;9.362;2024-03-25T04:34:49;3.00;99.90
46590;DHT22;32313;48.722;9.362;2024-03-25T04:37:14;3.00;99.90
46590;DHT22;32313;48.722;9.362;2024-03-25T04:39:41;2.90;99.90
46590;DHT22;32313;48.722;9.362;2024-03-25T04:42:06;2.80;99.90
46590;DHT22;32313;48.722;9.362;2024-03-25T04:44:32;2.70;99.90
46590;DHT22;32313;48.722;9.362;2024-03-25T04:46:58;2.60;99.90
46590;DHT22;32313;48.722;9.362;2024-03-25T04:49:23;2.70;99.90
46590;DHT22;32313;48.722;9.362;2024-03-25T04:51:49;2.70;99.90
46590;DHT22;32313;48.722;9.362;2024-03-25T04:54:17;2.60;99.90
46590;DHT22;32313;48.722;9.362;2024-03-25T04:56:42;2.60;99.90
46590;DHT22;32313;48.722;9.362;2024-03-25T04:59:09;2.60;99.90
46590;DHT22;32313;48.722;9.362;2024-03-25T05:01:35;2.50;99.90
46590;DHT22;32313;48.722;9.362;2024-03-25T05:04:02;2.50;99.90
46590;DHT22;32313;48.722;9.362;2024-03-25T05:06:28;2.50;99.90
46590;DHT22;32313;48.722;9.362;2024-03-25T05:08:53;2.50;99.90
46590;DHT22;32313;48.722;9.362;2024-03-25T05:11:19;2.40;99.90
46590;DHT22;32313;48.722;9.362;2024-03-25T05:13:45;2.40;99.90
46590;DHT22;32313;48.722;9.362;2024-03-25T05:16:11;2.40;99.90
46590;DHT22;32313;48.722;9.362;2024-03-25T05:18:36;2.40;99.90
46590;DHT22;32313;48.722;9.362;2024-03-25T05:21:02;2.40;99.90
46590;DHT22;32313;48.722;9.362;2024-03-25T05:23:28;2.40;99.90
46590;DHT22;32313;48.722;9.362;2024-03-25T05:25:53;2.40;99.90
46590;DHT22;32313;48.722;9.362;2024-03-25T05:28:21;2.50;99.90
46590;DHT22;32313;48.722;9.362;2024-03-25T05:30:47;2.60;99.90
46590;DHT22;32313;48.722;9.362;2024-03-25T05:33:12;2.60;99.90
46590;DHT22;32313;48.722;9.362;2024-03-25T05:35:38;2.70;99.90
46590;DHT22;32313;48.722;9.362;2024-03-25T05:38:21;2.70;99.90
46590;DHT22;32313;48.722;9.362;2024-03-25T05:40:47;2.80;99.90
46590;DHT22;32313;48.722;9.362;2024-03-25T05:43:12;2.90;99.90
46590;DHT22;32313;48.722;9.362;2024-03-25T05:45:38;2.90;99.90
46590;DHT22;32313;48.722;9.362;2024-03-25T05:48:04;3.00;99.90
46590;DHT22;32313;48.722;9.362;2024-03-25T05:50:30;3.00;99.90
46590;DHT22;32313;48.722;9.362;2024-03-25T05:52:55;3.00;99.90
46590;DHT22;32313;48.722;9.362;2024-03-25T05:55:24;3.10;99.90
46590;DHT22;32313;48.722;9.362;2024-03-25T05:57:50;3.10;99.90
46590;DHT22;32313;48.722;9.362;2024-03-25T06:00:16;3.20;99.90
46590;DHT22;32313;48.722;9.362;2024-03-25T06:02:41;3.20;99.90
46590;DHT22;32313;48.722;9.362;2024-03-25T06:05:07;3.30;99.90
46590;DHT22;32313;48.722;9.362;2024-03-25T06:07:36;3.40;99.90
46590;DHT22;32313;48.722;9.362;2024-03-25T06:10:02;3.50;99.90
46590;DHT22;32313;48.722;9.362;2024-03-25T06:12:28;3.60;99.90
46590;DHT22;32313;48.722;9.362;2024-03-25T06:14:54;3.80;99.90
46590;DHT22;32313;48.722;9.362;2024-03-25T06:17:19;3.90;99.90
46590;DHT22;32313;48.722;9.362;2024-03-25T06:19:45;4.10;99.90
46590;DHT22;32313;48.722;9.362;2024-03-25T06:22:11;4.20;99.90
46590;DHT22;32313;48.722;9.362;2024-03-25T06:24:36;4.40;99.90
46590;DHT22;32313;48.722;9.362;2024-03-25T06:27:02;4.60;99.90
46590;DHT22;32313;48.722;9.362;2024-03-25T06:29:29;4.90;99.90
46590;DHT22;32313;48.722;9.362;2024-03-25T06:31:54;5.30;99.90
46590;DHT22;32313;48.722;9.362;2024-03-25T06:34:38;5.70;99.90
46590;DHT22;32313;48.722;9.362;2024-03-25T06:37:05;6.00;99.90
46590;DHT22;32313;48.722;9.362;2024-03-25T06:39:30;6.60;99.90
46590;DHT22;32313;48.722;9.362;2024-03-25T06:41:56;7.20;99.90
46590;DHT22;32313;48.722;9.362;2024-03-25T06:44:21;7.60;99.90
46590;DHT22;32313;48.722;9.362;2024-03-25T06:46:47;7.70;99.90
46590;DHT22;32313;48.722;9.362;2024-03-25T06:49:13;7.80;99.90
46590;DHT22;32313;48.722;9.362;2024-03-25T06:51:38;8.10;99.90
46590;DHT22;32313;48.722;9.362;2024-03-25T06:54:04;8.40;99.90
46590;DHT22;32313;48.722;9.362;2024-03-25T06:56:30;8.70;99.90
46590;DHT22;32313;48.722;9.362;2024-03-25T06:58:55;9.00;99.90
46590;DHT22;32313;48.722;9.362;2024-03-25T07:01:21;9.00;99.90
46590;DHT22;32313;48.722;9.362;2024-03-25T07:03:47;9.10;99.90
46590;DHT22;32313;48.722;9.362;2024-03-25T07:06:13;9.40;99.90
46590;DHT22;32313;48.722;9.362;2024-03-25T07:08:38;9.70;99.90
46590;DHT22;32313;48.722;9.362;2024-03-25T07:11:04;9.80;99.90
46590;DHT22;32313;48.722;9.362;2024-03-25T07:13:30;9.80;99.90
46590;DHT22;32313;48.722;9.362;2024-03-25T07:15:56;9.80;99.90
46590;DHT22;32313;48.722;9.362;2024-03-25T07:18:21;9.80;99.90
46590;DHT22;32313;48.722;9.362;2024-03-25T07:20:47;9.40;99.90
46590;DHT22;32313;48.722;9.362;2024-03-25T07:23:13;9.30;99.90
46590;DHT22;32313;48.722;9.362;2024-03-25T07:25:38;9.10;99.90
46590;DHT22;32313;48.722;9.362;2024-03-25T07:28:05;9.40;99.90
46590;DHT22;32313;48.722;9.362;2024-03-25T07:30:43;9.30;99.90
46590;DHT22;32313;48.722;9.362;2024-03-25T07:33:09;9.40;99.90
46590;DHT22;32313;48.722;9.362;2024-03-25T07:35:35;9.60;99.90
46590;DHT22;32313;48.722;9.362;2024-03-25T07:38:01;10.20;99.90
46590;DHT22;32313;48.722;9.362;2024-03-25T07:40:28;10.50;99.90
46590;DHT22;32313;48.722;9.362;2024-03-25T07:42:54;10.70;99.90
46590;DHT22;32313;48.722;9.362;2024-03-25T07:45:20;11.10;99.90
46590;DHT22;32313;48.722;9.362;2024-03-25T07:47:46;11.40;99.90
46590;DHT22;32313;48.722;9.362;2024-03-25T07:50:11;12.00;99.90
46590;DHT22;32313;48.722;9.362;2024-03-25T07:52:37;11.80;99.90
46590;DHT22;32313;48.722;9.362;2024-03-25T07:55:08;11.80;99.90
46590;DHT22;32313;48.722;9.362;2024-03-25T07:57:34;11.80;99.90
46590;DHT22;32313;48.722;9.362;2024-03-25T08:00:00;11.50;99.90
46590;DHT22;32313;48.722;9.362;2024-03-25T08:02:26;11.50;99.90
46590;DHT22;32313;48.722;9.362;2024-03-25T08:04:52;11.80;99.90
46590;DHT22;32313;48.722;9.362;2024-03-25T08:07:18;11.90;99.90
46590;DHT22;32313;48.722;9.362;2024-03-25T08:09:43;12.50;99.90
46590;DHT22;32313;48.722;9.362;2024-03-25T08:12:09;12.40;99.90
46590;DHT22;32313;48.722;9.362;2024-03-25T08:14:35;11.40;99.90
46590;DHT22;32313;48.722;9.362;2024-03-25T08:17:01;11.00;99.90
46590;DHT22;32313;48.722;9.362;2024-03-25T08:19:28;10.50;99.90
46590;DHT22;32313;48.722;9.362;2024-03-25T08:21:54;10.70;99.90
46590;DHT22;32313;48.722;9.362;2024-03-25T08:24:19;11.50;99.90
46590;DHT22;32313;48.722;9.362;2024-03-25T08:26:45;11.40;99.90
46590;DHT22;32313;48.722;9.362;2024-03-25T08:29:11;11.50;99.90
46590;DHT22;32313;48.722;9.362;2024-03-25T08:31:36;11.90;99.90
46590;DHT22;32313;48.722;9.362;2024-03-25T08:34:02;12.00;99.90
46590;DHT22;32313;48.722;9.362;2024-03-25T08:36:28;12.20;99.90
46590;DHT22;32313;48.722;9.362;2024-03-25T08:38:54;12.20;99.90
46590;DHT22;32313;48.722;9.362;2024-03-25T08:41:19;12.10;99.90
46590;DHT22;32313;48.722;9.362;2024-03-25T08:43:48;12.20;99.90
46590;DHT22;32313;48.722;9.362;2024-03-25T08:46:14;13.00;99.90
46590;DHT22;32313;48.722;9.362;2024-03-25T08:48:39;13.30;99.90
46590;DHT22;32313;48.722;9.362;2024-03-25T08:51:05;13.60;99.90
46590;DHT22;32313;48.722;9.362;2024-03-25T08:53:31;14.00;99.90
46590;DHT22;32313;48.722;9.362;2024-03-25T08:55:56;14.60;99.90
46590;DHT22;32313;48.722;9.362;2024-03-25T08:58:22;14.70;99.90
46590;DHT22;32313;48.722;9.362;2024-03-25T09:00:48;14.40;99.90
46590;DHT22;32313;48.722;9.362;2024-03-25T09:03:13;14.20;99.90
46590;DHT22;32313;48.722;9.362;2024-03-25T09:05:39;14.10;99.90
46590;DHT22;32313;48.722;9.362;2024-03-25T09:08:08;14.10;99.90
46590;DHT22;32313;48.722;9.362;2024-03-25T09:10:37;14.20;99.90
46590;DHT22;32313;48.722;9.362;2024-03-25T09:13:21;15.20;99.90
46590;DHT22;32313;48.722;9.362;2024-03-25T09:15:49;15.20;99.90
46590;DHT22;32313;48.722;9.362;2024-03-25T09:18:15;15.30;99.90
46590;DHT22;32313;48.722;9.362;2024-03-25T09:20:41;15.60;99.90
46590;DHT22;32313;48.722;9.362;2024-03-25T09:23:06;15.20;99.90
46590;DHT22;32313;48.722;9.362;2024-03-25T09:25:33;15.40;99.90
46590;DHT22;32313;48.722;9.362;2024-03-25T09:27:59;15.40;99.90
46590;DHT22;32313;48.722;9.362;2024-03-25T09:30:24;15.30;99.90
46590;DHT22;32313;48.722;9.362;2024-03-25T09:32:50;15.50;99.90
46590;DHT22;32313;48.722;9.362;2024-03-25T09:35:16;15.50;98.30
46590;DHT22;32313;48.722;9.362;2024-03-25T09:37:42;15.50;98.50
46590;DHT22;32313;48.722;9.362;2024-03-25T09:40:08;15.60;97.30
46590;DHT22;32313;48.722;9.362;2024-03-25T09:42:47;15.30;98.50
46590;DHT22;32313;48.722;9.362;2024-03-25T09:45:17;14.60;97.70
46590;DHT22;32313;48.722;9.362;2024-03-25T09:47:46;14.70;97.60
46590;DHT22;32313;48.722;9.362;2024-03-25T09:50:15;15.10;97.60
46590;DHT22;32313;48.722;9.362;2024-03-25T09:52:50;15.50;96.30
46590;DHT22;32313;48.722;9.362;2024-03-25T09:55:16;16.00;96.50
46590;DHT22;32313;48.722;9.362;2024-03-25T09:57:43;16.50;96.80
46590;DHT22;32313;48.722;9.362;2024-03-25T10:00:09;16.80;94.30
46590;DHT22;32313;48.722;9.362;2024-03-25T10:02:40;17.80;96.30
46590;DHT22;32313;48.722;9.362;2024-03-25T10:05:07;18.80;95.40
46590;DHT22;32313;48.722;9.362;2024-03-25T10:07:33;19.10;91.80
46590;DHT22;32313;48.722;9.362;2024-03-25T10:10:03;19.30;91.20
46590;DHT22;32313;48.722;9.362;2024-03-25T10:12:28;18.90;84.40
46590;DHT22;32313;48.722;9.362;2024-03-25T10:14:54;17.30;84.60
46590;DHT22;32313;48.722;9.362;2024-03-25T10:17:22;15.70;86.50
46590;DHT22;32313;48.722;9.362;2024-03-25T10:19:48;14.90;90.90
46590;DHT22;32313;48.722;9.362;2024-03-25T10:22:14;14.50;90.90
46590;DHT22;32313;48.722;9.362;2024-03-25T10:24:42;14.00;91.80
46590;DHT22;32313;48.722;9.362;2024-03-25T10:27:22;13.70;92.80
46590;DHT22;32313;48.722;9.362;2024-03-25T10:29:51;13.40;92.20
46590;DHT22;32313;48.722;9.362;2024-03-25T10:32:17;13.30;93.00
46590;DHT22;32313;48.722;9.362;2024-03-25T10:34:44;13.30;93.20
46590;DHT22;32313;48.722;9.362;2024-03-25T10:37:10;13.10;93.00
46590;DHT22;32313;48.722;9.362;2024-03-25T10:39:57;12.80;92.80
46590;DHT22;32313;48.722;9.362;2024-03-25T10:42:26;12.50;93.50
46590;DHT22;32313;48.722;9.362;2024-03-25T10:44:52;12.30;93.00
46590;DHT22;32313;48.722;9.362;2024-03-25T10:47:25;12.30;92.60
46590;DHT22;32313;48.722;9.362;2024-03-25T10:49:57;12.30;93.00
46590;DHT22;32313;48.722;9.362;2024-03-25T10:52:27;12.30;92.70
46590;DHT22;32313;48.722;9.362;2024-03-25T10:54:55;12.10;92.80
46590;DHT22;32313;48.722;9.362;2024-03-25T10:57:22;12.20;93.90
46590;DHT22;32313;48.722;9.362;2024-03-25T10:59:49;13.00;92.90
46590;DHT22;32313;48.722;9.362;2024-03-25T11:02:15;13.90;92.10
46590;DHT22;32313;48.722;9.362;2024-03-25T11:04:43;15.50;89.10
46590;DHT22;32313;48.722;9.362;2024-03-25T11:07:12;16.90;88.30
46590;DHT22;32313;48.722;9.362;2024-03-25T11:09:38;16.60;81.00
46590;DHT22;32313;48.722;9.362;2024-03-25T11:12:04;15.90;83.80
46590;DHT22;32313;48.722;9.362;2024-03-25T11:14:30;15.30;85.50
46590;DHT22;32313;48.722;9.362;2024-03-25T11:17:01;15.30;87.60
46590;DHT22;32313;48.722;9.362;2024-03-25T11:19:29;15.20;86.80
46590;DHT22;32313;48.722;9.362;2024-03-25T11:22:07;15.20;86.90
46590;DHT22;32313;48.722;9.362;2024-03-25T11:24:34;14.80;87.50
46590;DHT22;32313;48.722;9.362;2024-03-25T11:27:03;14.20;90.00
46590;DHT22;32313;48.722;9.362;2024-03-25T11:29:29;13.70;90.70
46590;DHT22;32313;48.722;9.362;2024-03-25T11:31:56;13.30;90.70
46590;DHT22;32313;48.722;9.362;2024-03-25T11:34:24;14.70;90.20
46590;DHT22;32313;48.722;9.362;2024-03-25T11:36:50;16.40;85.60
46590;DHT22;32313;48.722;9.362;2024-03-25T11:39:22;17.50;81.20
46590;DHT22;32313;48.722;9.362;2024-03-25T11:41:47;18.90;79.00
46590;DHT22;32313;48.722;9.362;2024-03-25T11:44:13;19.30;74.30
46590;DHT22;32313;48.722;9.362;2024-03-25T11:46:40;19.90;74.00
46590;DHT22;32313;48.722;9.362;2024-03-25T11:49:14;20.70;70.70
46590;DHT22;32313;48.722;9.362;2024-03-25T11:51:42;21.10;63.80
46590;DHT22;32313;48.722;9.362;2024-03-25T11:54:10;21.20;70.40
46590;DHT22;32313;48.722;9.362;2024-03-25T11:56:37;21.20;61.70
46590;DHT22;32313;48.722;9.362;2024-03-25T11:59:05;21.40;61.60
46590;DHT22;32313;48.722;9.362;2024-03-25T12:01:32;21.90;64.80
46590;DHT22;32313;48.722;9.362;2024-03-25T12:04:15;22.20;61.50
46590;DHT22;32313;48.722;9.362;2024-03-25T12:06:41;22.00;57.40
46590;DHT22;32313;48.722;9.362;2024-03-25T12:09:08;21.40;58.50
46590;DHT22;32313;48.722;9.362;2024-03-25T12:11:52;20.80;55.90
46590;DHT22;32313;48.722;9.362;2024-03-25T12:14:18;20.40;56.30
46590;DHT22;32313;48.722;9.362;2024-03-25T12:16:44;19.80;55.40
46590;DHT22;32313;48.722;9.362;2024-03-25T12:19:10;19.20;55.00
46590;DHT22;32313;48.722;9.362;2024-03-25T12:21:36;18.80;56.10
46590;DHT22;32313;48.722;9.362;2024-03-25T12:24:03;18.80;58.90
46590;DHT22;32313;48.722;9.362;2024-03-25T12:26:31;18.80;58.00
46590;DHT22;32313;48.722;9.362;2024-03-25T12:28:58;18.90;56.00
46590;DHT22;32313;48.722;9.362;2024-03-25T12:31:24;19.40;56.60
46590;DHT22;32313;48.722;9.362;2024-03-25T12:33:50;20.00;55.40
46590;DHT22;32313;48.722;9.362;2024-03-25T12:36:16;20.40;56.50
46590;DHT22;32313;48.722;9.362;2024-03-25T12:38:41;20.90;56.50
46590;DHT22;32313;48.722;9.362;2024-03-25T12:41:09;20.90;57.40
46590;DHT22;32313;48.722;9.362;2024-03-25T12:43:36;21.20;55.80
46590;DHT22;32313;48.722;9.362;2024-03-25T12:46:03;21.60;54.60
46590;DHT22;32313;48.722;9.362;2024-03-25T12:48:31;22.00;55.70
46590;DHT22;32313;48.722;9.362;2024-03-25T12:50:57;22.40;51.10
46590;DHT22;32313;48.722;9.362;2024-03-25T12:53:22;22.20;49.20
46590;DHT22;32313;48.722;9.362;2024-03-25T12:55:49;22.00;52.10
46590;DHT22;32313;48.722;9.362;2024-03-25T12:58:14;22.00;47.80
46590;DHT22;32313;48.722;9.362;2024-03-25T13:00:40;21.60;51.40
46590;DHT22;32313;48.722;9.362;2024-03-25T13:03:09;21.50;52.40
46590;DHT22;32313;48.722;9.362;2024-03-25T13:05:35;21.40;49.80
46590;DHT22;32313;48.722;9.362;2024-03-25T13:08:02;20.90;51.10
46590;DHT22;32313;48.722;9.362;2024-03-25T13:10:29;21.00;53.50
46590;DHT22;32313;48.722;9.362;2024-03-25T13:12:55;21.50;52.00
46590;DHT22;32313;48.722;9.362;2024-03-25T13:15:21;21.40;51.80
46590;DHT22;32313;48.722;9.362;2024-03-25T13:17:47;20.70;53.10
46590;DHT22;32313;48.722;9.362;2024-03-25T13:20:12;20.40;53.40
46590;DHT22;32313;48.722;9.362;2024-03-25T13:22:39;19.90;53.20
46590;DHT22;32313;48.722;9.362;2024-03-25T13:25:06;20.10;54.00
46590;DHT22;32313;48.722;9.362;2024-03-25T13:27:31;20.00;51.70
46590;DHT22;32313;48.722;9.362;2024-03-25T13:29:58;19.80;54.70
46590;DHT22;32313;48.722;9.362;2024-03-25T13:32:24;20.70;55.50
46590;DHT22;32313;48.722;9.362;2024-03-25T13:34:50;21.20;52.40
46590;DHT22;32313;48.722;9.362;2024-03-25T13:37:16;21.50;53.00
46590;DHT22;32313;48.722;9.362;2024-03-25T13:39:42;21.50;50.80
46590;DHT22;32313;48.722;9.362;2024-03-25T13:42:07;20.90;52.60
46590;DHT22;32313;48.722;9.362;2024-03-25T13:44:33;20.50;53.50
46590;DHT22;32313;48.722;9.362;2024-03-25T13:46:59;20.40;52.90
46590;DHT22;32313;48.722;9.362;2024-03-25T13:49:25;20.00;52.20
46590;DHT22;32313;48.722;9.362;2024-03-25T13:51:57;20.00;52.90
46590;DHT22;32313;48.722;9.362;2024-03-25T13:54:28;20.20;51.70
46590;DHT22;32313;48.722;9.362;2024-03-25T13:56:53;20.30;52.10
46590;DHT22;32313;48.722;9.362;2024-03-25T13:59:19;20.60;53.20
46590;DHT22;32313;48.722;9.362;2024-03-25T14:01:45;21.00;52.30
46590;DHT22;32313;48.722;9.362;2024-03-25T14:04:11;21.00;52.10
46590;DHT22;32313;48.722;9.362;2024-03-25T14:06:37;21.10;52.50
46590;DHT22;32313;48.722;9.362;2024-03-25T14:09:03;21.40;52.00
46590;DHT22;32313;48.722;9.362;2024-03-25T14:11:36;21.50;53.20
46590;DHT22;32313;48.722;9.362;2024-03-25T14:14:02;21.90;52.20
46590;DHT22;32313;48.722;9.362;2024-03-25T14:16:28;21.40;51.10
46590;DHT22;32313;48.722;9.362;2024-03-25T14:18:54;21.10;50.90
46590;DHT22;32313;48.722;9.362;2024-03-25T14:21:20;21.20;51.50
46590;DHT22;32313;48.722;9.362;2024-03-25T14:23:46;21.30;49.70
46590;DHT22;32313;48.722;9.362;2024-03-25T14:26:14;21.00;52.20
46590;DHT22;32313;48.722;9.362;2024-03-25T14:28:40;20.90;51.20
46590;DHT22;32313;48.722;9.362;2024-03-25T14:31:06;20.80;53.00
46590;DHT22;32313;48.722;9.362;2024-03-25T14:33:32;21.20;52.40
46590;DHT22;32313;48.722;9.362;2024-03-25T14:35:58;21.00;48.70
46590;DHT22;32313;48.722;9.362;2024-03-25T14:38:24;20.60;49.60
46590;DHT22;32313;48.722;9.362;2024-03-25T14:40:49;20.60;49.50
46590;DHT22;32313;48.722;9.362;2024-03-25T14:43:15;20.10;51.10
46590;DHT22;32313;48.722;9.362;2024-03-25T14:45:47;20.00;51.00
46590;DHT22;32313;48.722;9.362;2024-03-25T14:48:13;19.40;51.30
46590;DHT22;32313;48.722;9.362;2024-03-25T14:50:39;19.50;51.50
46590;DHT22;32313;48.722;9.362;2024-03-25T14:53:04;19.30;50.50
46590;DHT22;32313;48.722;9.362;2024-03-25T14:55:30;19.30;52.00
46590;DHT22;32313;48.722;9.362;2024-03-25T14:57:56;19.00;52.40
46590;DHT22;32313;48.722;9.362;2024-03-25T15:00:22;19.10;52.90
46590;DHT22;32313;48.722;9.362;2024-03-25T15:02:53;19.10;50.80
46590;DHT22;32313;48.722;9.362;2024-03-25T15:05:19;18.90;51.00
46590;DHT22;32313;48.722;9.362;2024-03-25T15:07:46;18.70;52.30
46590;DHT22;32313;48.722;9.362;2024-03-25T15:10:12;18.50;52.10
46590;DHT22;32313;48.722;9.362;2024-03-25T15:12:38;18.60;52.60
46590;DHT22;32313;48.722;9.362;2024-03-25T15:15:05;18.60;53.20
46590;DHT22;32313;48.722;9.362;2024-03-25T15:17:36;18.80;51.90
46590;DHT22;32313;48.722;9.362;2024-03-25T15:20:03;18.70;51.70
46590;DHT22;32313;48.722;9.362;2024-03-25T15:22:29;18.60;51.70
46590;DHT22;32313;48.722;9.362;2024-03-25T15:24:55;18.50;53.10
46590;DHT22;32313;48.722;9.362;2024-03-25T15:27:21;18.20;52.10
46590;DHT22;32313;48.722;9.362;2024-03-25T15:29:46;18.00;53.10
46590;DHT22;32313;48.722;9.362;2024-03-25T15:32:12;18.10;53.00
46590;DHT22;32313;48.722;9.362;2024-03-25T15:34:38;18.00;52.80